createdAt,value
2019-03-21T00:00:38.731Z,19.85
2019-03-21T00:01:18.251Z,20.50
2019-03-21T00:01:57.964Z,20.02
2019-03-21T00:02:35.888Z,20.15
2019-03-21T00:03:14.174Z,20.97
2019-03-21T00:03:54.309Z,21.02
2019-03-21T00:04:32.297Z,21.27
2019-03-21T00:05:10.658Z,21.97
2019-03-21T00:05:48.704Z,20.83
2019-03-21T00:06:26.994Z,21.25
2019-03-21T00:07:05.416Z,22.13
2019-03-21T00:07:43.330Z,19.98
2019-03-21T00:08:21.704Z,20.90
2019-03-21T00:09:00.618Z,20.48
2019-03-21T00:09:38.948Z,20.77
2019-03-21T00:10:49.888Z,18.87
2019-03-21T00:11:55.415Z,18.30
2019-03-21T00:12:33.708Z,19.40
2019-03-21T00:13:12.719Z,20.20
2019-03-21T00:13:52.120Z,19.77
2019-03-21T00:14:33.978Z,20.52
2019-03-21T00:15:21.472Z,18.40
2019-03-21T00:16:05.370Z,19.62
2019-03-21T00:16:43.574Z,18.75
2019-03-21T00:17:26.001Z,20.65
2019-03-21T00:18:22.581Z,18.98
2019-03-21T00:19:00.869Z,19.12
2019-03-21T00:19:39.422Z,18.00
2019-03-21T00:20:18.459Z,19.45
2019-03-21T00:20:56.882Z,21.07
2019-03-21T00:21:34.878Z,18.82
2019-03-21T00:22:13.501Z,19.90
2019-03-21T00:22:51.624Z,19.90
2019-03-21T00:23:30.040Z,19.90
2019-03-21T00:24:08.302Z,21.00
2019-03-21T00:24:46.779Z,20.48
2019-03-21T00:25:25.331Z,21.17
2019-03-21T00:26:03.700Z,21.97
2019-03-21T00:26:42.181Z,18.62
2019-03-21T00:27:20.476Z,19.17
2019-03-21T00:27:58.646Z,20.27
2019-03-21T00:28:36.568Z,20.17
2019-03-21T00:29:15.592Z,20.30
2019-03-21T00:29:54.129Z,21.85
2019-03-21T00:30:32.573Z,20.60
2019-03-21T00:31:10.571Z,20.30
2019-03-21T00:31:48.575Z,21.02
2019-03-21T00:32:27.118Z,19.02
2019-03-21T00:33:05.874Z,20.77
2019-03-21T00:33:43.768Z,20.55
2019-03-21T00:34:21.801Z,20.65
2019-03-21T00:34:59.796Z,20.25
2019-03-21T00:35:38.702Z,20.20
2019-03-21T00:36:17.336Z,20.97
2019-03-21T00:36:55.348Z,18.85
2019-03-21T00:37:33.603Z,20.12
2019-03-21T00:38:11.798Z,22.30
2019-03-21T00:38:49.629Z,21.23
2019-03-21T00:39:32.792Z,20.00
2019-03-21T00:40:10.020Z,19.40
2019-03-21T00:40:48.396Z,20.27
2019-03-21T00:41:26.456Z,20.70
2019-03-21T00:42:04.780Z,21.90
2019-03-21T00:42:43.138Z,20.92
2019-03-21T00:43:21.435Z,21.10
2019-03-21T00:43:59.673Z,20.72
2019-03-21T00:44:38.312Z,19.92
2019-03-21T00:45:17.121Z,21.00
2019-03-21T00:45:55.432Z,20.92
2019-03-21T00:46:33.804Z,21.80
2019-03-21T00:47:12.115Z,20.32
2019-03-21T00:47:50.415Z,21.17
2019-03-21T00:48:29.040Z,21.15
2019-03-21T00:49:07.454Z,21.57
2019-03-21T00:49:45.414Z,20.60
2019-03-21T00:50:24.373Z,20.82
2019-03-21T00:51:02.641Z,20.82
2019-03-21T00:51:40.534Z,20.75
2019-03-21T00:52:18.499Z,19.90
2019-03-21T00:52:57.227Z,20.77
2019-03-21T00:53:35.142Z,22.15
2019-03-21T00:54:13.440Z,20.92
2019-03-21T00:54:51.380Z,21.40
2019-03-21T00:55:30.466Z,19.95
2019-03-21T00:56:08.834Z,20.27
2019-03-21T00:56:47.515Z,19.87
2019-03-21T00:57:25.836Z,20.00
2019-03-21T00:58:04.252Z,21.12
2019-03-21T00:58:42.886Z,19.98
2019-03-21T00:59:24.721Z,20.80
2019-03-21T01:00:03.296Z,20.60
2019-03-21T01:00:44.356Z,19.23
2019-03-21T01:01:22.956Z,18.65
2019-03-21T01:02:01.481Z,20.55
2019-03-21T01:02:39.710Z,20.50
2019-03-21T01:03:18.348Z,18.57
2019-03-21T01:03:56.702Z,20.80
2019-03-21T01:04:35.508Z,20.68
2019-03-21T01:05:14.566Z,19.07
2019-03-21T01:05:52.471Z,18.87
2019-03-21T01:06:31.220Z,19.70
2019-03-21T01:07:09.383Z,19.62
2019-03-21T01:07:47.344Z,20.35
2019-03-21T01:08:25.990Z,21.95
2019-03-21T01:09:04.062Z,19.98
2019-03-21T01:09:42.688Z,20.02
2019-03-21T01:10:21.728Z,20.20
2019-03-21T01:11:00.093Z,18.73
2019-03-21T01:11:38.340Z,19.80
2019-03-21T01:12:16.278Z,19.85
2019-03-21T01:12:53.976Z,19.25
2019-03-21T01:13:33.848Z,19.77
2019-03-21T01:14:11.603Z,19.37
2019-03-21T01:14:50.284Z,18.55
2019-03-21T01:15:28.620Z,19.25
2019-03-21T01:16:06.990Z,20.57
2019-03-21T01:16:45.360Z,19.85
2019-03-21T01:17:24.000Z,19.82
2019-03-21T01:18:01.992Z,18.90
2019-03-21T01:18:40.892Z,18.85
2019-03-21T01:19:19.502Z,20.10
2019-03-21T01:19:57.484Z,20.30
2019-03-21T01:20:36.117Z,19.32
2019-03-21T01:21:13.768Z,21.15
2019-03-21T01:21:51.952Z,19.77
2019-03-21T01:22:29.461Z,19.75
2019-03-21T01:23:07.375Z,19.55
2019-03-21T01:23:45.876Z,20.50
2019-03-21T01:24:23.826Z,19.92
2019-03-21T01:25:02.345Z,20.32
2019-03-21T01:25:46.391Z,18.50
2019-03-21T01:26:24.062Z,20.48
2019-03-21T01:27:02.068Z,19.80
2019-03-21T01:27:40.347Z,20.57
2019-03-21T01:28:18.654Z,20.37
2019-03-21T01:28:56.540Z,20.35
2019-03-21T01:29:34.448Z,21.40
2019-03-21T01:30:14.571Z,19.67
2019-03-21T01:30:52.852Z,19.40
2019-03-21T01:31:31.184Z,20.15
2019-03-21T01:32:09.781Z,19.48
2019-03-21T01:32:47.864Z,19.35
2019-03-21T01:33:25.952Z,18.30
2019-03-21T01:34:04.266Z,20.55
2019-03-21T01:34:42.550Z,20.50
2019-03-21T01:35:20.766Z,20.17
2019-03-21T01:35:58.742Z,21.15
2019-03-21T01:36:37.324Z,20.52
2019-03-21T01:37:15.946Z,20.50
2019-03-21T01:37:53.630Z,21.13
2019-03-21T01:38:31.574Z,21.27
2019-03-21T01:39:10.082Z,19.55
2019-03-21T01:39:48.717Z,22.13
2019-03-21T01:40:27.756Z,20.92
2019-03-21T01:41:06.256Z,20.70
2019-03-21T01:41:44.185Z,21.30
2019-03-21T01:42:22.224Z,21.40
2019-03-21T01:43:00.820Z,18.80
2019-03-21T01:43:39.008Z,20.57
2019-03-21T01:44:17.472Z,20.12
2019-03-21T01:44:55.372Z,20.05
2019-03-21T01:45:33.705Z,21.02
2019-03-21T01:46:12.524Z,20.27
2019-03-21T01:46:50.550Z,20.65
2019-03-21T01:47:28.829Z,21.62
2019-03-21T01:48:07.248Z,20.05
2019-03-21T01:48:45.206Z,19.65
2019-03-21T01:49:23.426Z,20.20
2019-03-21T01:50:01.734Z,21.00
2019-03-21T01:50:39.800Z,19.77
2019-03-21T01:51:18.107Z,20.02
2019-03-21T01:51:56.040Z,21.25
2019-03-21T01:52:34.597Z,20.70
2019-03-21T01:53:12.576Z,21.50
2019-03-21T01:53:51.290Z,19.67
2019-03-21T01:54:29.588Z,21.17
2019-03-21T01:55:08.345Z,21.80
2019-03-21T01:55:46.499Z,19.70
2019-03-21T01:56:24.480Z,20.92
2019-03-21T01:57:03.054Z,22.05
2019-03-21T01:57:40.972Z,22.80
2019-03-21T01:58:18.887Z,19.02
2019-03-21T01:58:57.104Z,22.05
2019-03-21T01:59:35.426Z,21.60
2019-03-21T02:00:16.262Z,22.17
2019-03-21T02:00:54.330Z,20.00
2019-03-21T02:01:32.039Z,21.15
2019-03-21T02:02:10.080Z,21.62
2019-03-21T02:02:49.340Z,21.55
2019-03-21T02:03:27.272Z,20.62
2019-03-21T02:04:05.628Z,21.07
2019-03-21T02:04:44.159Z,19.98
2019-03-21T02:05:22.380Z,21.52
2019-03-21T02:06:00.901Z,18.52
2019-03-21T02:06:38.414Z,20.45
2019-03-21T02:07:16.773Z,21.50
2019-03-21T02:07:55.140Z,20.72
2019-03-21T02:08:33.316Z,21.52
2019-03-21T02:09:11.984Z,21.93
2019-03-21T02:09:50.214Z,20.25
2019-03-21T02:10:28.508Z,21.23
2019-03-21T02:11:06.561Z,21.77
2019-03-21T02:11:44.653Z,21.97
2019-03-21T02:12:22.916Z,22.35
2019-03-21T02:13:00.331Z,20.93
2019-03-21T02:13:38.740Z,22.20
2019-03-21T02:14:16.352Z,21.30
2019-03-21T02:14:54.825Z,21.05
2019-03-21T02:15:33.219Z,20.95
2019-03-21T02:16:10.900Z,21.40
2019-03-21T02:16:48.785Z,20.97
2019-03-21T02:17:27.228Z,20.70
2019-03-21T02:18:06.043Z,20.12
2019-03-21T02:18:44.648Z,21.35
2019-03-21T02:19:22.481Z,22.48
2019-03-21T02:20:00.421Z,21.85
2019-03-21T02:20:38.102Z,23.30
2019-03-21T02:21:16.262Z,22.85
2019-03-21T02:21:54.068Z,21.55
2019-03-21T02:22:32.241Z,20.35
2019-03-21T02:23:10.624Z,21.55
2019-03-21T02:23:48.925Z,22.62
2019-03-21T02:24:26.923Z,23.22
2019-03-21T02:25:06.379Z,21.95
2019-03-21T02:25:44.078Z,21.02
2019-03-21T02:26:22.359Z,22.82
2019-03-21T02:27:00.949Z,21.37
2019-03-21T02:27:38.665Z,22.70
2019-03-21T02:28:16.092Z,21.43
2019-03-21T02:28:54.772Z,23.27
2019-03-21T02:29:32.792Z,20.40
2019-03-21T02:30:12.834Z,21.93
2019-03-21T02:30:50.826Z,20.25
2019-03-21T02:31:28.769Z,20.97
2019-03-21T02:32:06.504Z,20.45
2019-03-21T02:32:44.897Z,21.73
2019-03-21T02:33:31.191Z,21.50
2019-03-21T02:34:09.790Z,21.50
2019-03-21T02:34:47.410Z,19.95
2019-03-21T02:35:25.572Z,20.23
2019-03-21T02:36:04.345Z,21.82
2019-03-21T02:36:42.176Z,21.10
2019-03-21T02:37:20.149Z,22.17
2019-03-21T02:37:58.660Z,19.90
2019-03-21T02:38:36.329Z,21.52
2019-03-21T02:39:14.603Z,20.23
2019-03-21T02:39:59.293Z,19.70
2019-03-21T02:40:33.206Z,19.25
2019-03-21T02:41:11.982Z,18.67
2019-03-21T02:41:58.882Z,19.17
2019-03-21T02:42:36.871Z,19.37
2019-03-21T02:43:15.273Z,18.92
2019-03-21T02:43:53.566Z,18.73
2019-03-21T02:44:31.567Z,18.77
2019-03-21T02:45:10.796Z,20.37
2019-03-21T02:45:49.310Z,19.12
2019-03-21T02:46:27.789Z,20.20
2019-03-21T02:47:06.010Z,19.07
2019-03-21T02:47:44.047Z,18.42
2019-03-21T02:48:21.937Z,16.70
2019-03-21T02:49:00.133Z,19.07
2019-03-21T02:49:38.865Z,18.10
2019-03-21T02:50:19.256Z,19.40
2019-03-21T02:50:56.998Z,18.13
2019-03-21T02:51:35.517Z,19.30
2019-03-21T02:52:13.725Z,19.60
2019-03-21T02:52:52.037Z,19.98
2019-03-21T02:53:30.012Z,20.10
2019-03-21T02:54:08.586Z,20.55
2019-03-21T02:54:46.760Z,20.05
2019-03-21T02:55:25.753Z,19.10
2019-03-21T02:56:04.198Z,19.37
2019-03-21T02:56:42.804Z,18.90
2019-03-21T02:57:21.053Z,19.07
2019-03-21T02:57:59.392Z,20.73
2019-03-21T02:58:37.593Z,20.35
2019-03-21T02:59:15.534Z,21.80
2019-03-21T02:59:53.068Z,20.70
2019-03-21T03:00:32.092Z,21.07
2019-03-21T03:01:10.678Z,19.05
2019-03-21T03:01:48.676Z,21.07
2019-03-21T03:02:27.172Z,20.65
2019-03-21T03:03:05.688Z,21.52
2019-03-21T03:03:44.240Z,21.23
2019-03-21T03:04:22.586Z,19.90
2019-03-21T03:05:00.856Z,21.27
2019-03-21T03:05:39.106Z,20.32
2019-03-21T03:06:17.673Z,21.15
2019-03-21T03:06:56.193Z,20.77
2019-03-21T03:07:34.514Z,20.27
2019-03-21T03:08:12.741Z,19.80
2019-03-21T03:08:50.674Z,20.45
2019-03-21T03:09:29.226Z,21.48
2019-03-21T03:10:08.764Z,19.30
2019-03-21T03:10:49.138Z,20.90
2019-03-21T03:11:27.786Z,19.85
2019-03-21T03:12:05.635Z,20.05
2019-03-21T03:12:44.136Z,19.02
2019-03-21T03:13:22.653Z,19.15
2019-03-21T03:14:00.227Z,20.90
2019-03-21T03:14:38.558Z,18.85
2019-03-21T03:15:22.913Z,20.60
2019-03-21T03:15:57.999Z,20.30
2019-03-21T03:16:36.511Z,19.80
2019-03-21T03:17:14.801Z,20.30
2019-03-21T03:17:52.716Z,21.15
2019-03-21T03:18:30.620Z,19.60
2019-03-21T03:19:08.356Z,20.17
2019-03-21T03:19:46.677Z,19.90
2019-03-21T03:20:24.973Z,19.60
2019-03-21T03:21:03.241Z,19.37
2019-03-21T03:21:41.512Z,20.30
2019-03-21T03:22:19.127Z,18.98
2019-03-21T03:22:56.809Z,19.17
2019-03-21T03:23:35.013Z,20.10
2019-03-21T03:24:13.169Z,20.12
2019-03-21T03:24:51.812Z,19.52
2019-03-21T03:25:29.728Z,20.15
2019-03-21T03:26:08.289Z,19.87
2019-03-21T03:26:46.435Z,19.37
2019-03-21T03:27:24.791Z,19.92
2019-03-21T03:28:06.182Z,18.45
2019-03-21T03:28:44.355Z,19.90
2019-03-21T03:29:22.031Z,20.08
2019-03-21T03:29:59.939Z,18.48
2019-03-21T03:30:38.170Z,20.55
2019-03-21T03:31:16.229Z,20.45
2019-03-21T03:31:54.202Z,19.60
2019-03-21T03:32:32.784Z,21.97
2019-03-21T03:33:11.346Z,21.27
2019-03-21T03:33:49.806Z,20.68
2019-03-21T03:34:28.262Z,19.98
2019-03-21T03:35:25.199Z,19.00
2019-03-21T03:36:03.788Z,19.92
2019-03-21T03:36:41.462Z,20.57
2019-03-21T03:37:19.672Z,18.60
2019-03-21T03:37:57.612Z,20.00
2019-03-21T03:38:35.846Z,19.75
2019-03-21T03:39:14.701Z,20.52
2019-03-21T03:39:53.199Z,19.35
2019-03-21T03:40:34.341Z,20.62
2019-03-21T03:41:13.110Z,19.75
2019-03-21T03:41:50.798Z,20.10
2019-03-21T03:42:29.092Z,18.70
2019-03-21T03:43:07.801Z,20.05
2019-03-21T03:43:46.584Z,18.42
2019-03-21T03:44:24.534Z,19.98
2019-03-21T03:45:03.141Z,18.92
2019-03-21T03:45:41.236Z,19.48
2019-03-21T03:46:19.475Z,20.25
2019-03-21T03:46:57.788Z,18.23
2019-03-21T03:47:36.319Z,18.65
2019-03-21T03:48:14.882Z,18.27
2019-03-21T03:48:52.892Z,18.87
2019-03-21T03:49:31.636Z,20.88
2019-03-21T03:50:09.999Z,18.80
2019-03-21T03:50:48.341Z,20.47
2019-03-21T03:51:26.534Z,19.10
2019-03-21T03:52:04.729Z,19.65
2019-03-21T03:52:42.636Z,19.85
2019-03-21T03:53:20.893Z,19.20
2019-03-21T03:53:58.872Z,19.10
2019-03-21T03:54:37.374Z,19.92
2019-03-21T03:55:15.974Z,20.72
2019-03-21T03:55:54.007Z,20.23
2019-03-21T03:56:32.329Z,20.27
2019-03-21T03:57:10.392Z,21.05
2019-03-21T03:57:48.846Z,21.75
2019-03-21T03:58:27.184Z,19.77
2019-03-21T03:59:05.861Z,21.40
2019-03-21T03:59:44.775Z,19.17
2019-03-21T04:00:23.209Z,20.68
2019-03-21T04:01:01.903Z,21.75
2019-03-21T04:01:40.515Z,20.10
2019-03-21T04:02:19.114Z,19.10
2019-03-21T04:02:57.387Z,19.62
2019-03-21T04:03:35.685Z,20.55
2019-03-21T04:04:13.932Z,18.40
2019-03-21T04:04:52.160Z,20.30
2019-03-21T04:05:30.796Z,18.82
2019-03-21T04:06:08.883Z,20.65
2019-03-21T04:06:47.289Z,21.68
2019-03-21T04:07:25.882Z,19.42
2019-03-21T04:08:03.988Z,19.77
2019-03-21T04:08:42.630Z,20.43
2019-03-21T04:09:21.233Z,19.62
2019-03-21T04:09:59.285Z,20.20
2019-03-21T04:10:39.823Z,21.68
2019-03-21T04:11:17.833Z,21.10
2019-03-21T04:11:56.578Z,19.73
2019-03-21T04:12:34.978Z,19.55
2019-03-21T04:13:13.432Z,20.00
2019-03-21T04:13:51.437Z,21.90
2019-03-21T04:14:29.418Z,19.92
2019-03-21T04:15:08.216Z,21.85
2019-03-21T04:15:53.320Z,21.52
2019-03-21T04:16:26.381Z,20.85
2019-03-21T04:17:04.349Z,20.75
2019-03-21T04:17:42.352Z,19.82
2019-03-21T04:18:20.986Z,20.00
2019-03-21T04:18:58.942Z,20.15
2019-03-21T04:19:36.902Z,20.88
2019-03-21T04:20:16.352Z,20.23
2019-03-21T04:20:55.244Z,20.90
2019-03-21T04:21:32.955Z,21.00
2019-03-21T04:22:11.038Z,21.02
2019-03-21T04:22:49.451Z,20.68
2019-03-21T04:23:27.989Z,19.37
2019-03-21T04:24:06.552Z,20.55
2019-03-21T04:24:44.454Z,21.63
2019-03-21T04:25:25.687Z,22.37
2019-03-21T04:26:09.979Z,21.05
2019-03-21T04:26:47.959Z,20.45
2019-03-21T04:27:26.140Z,20.08
2019-03-21T04:28:04.214Z,20.12
2019-03-21T04:28:43.336Z,20.12
2019-03-21T04:29:21.643Z,19.85
2019-03-21T04:30:00.412Z,20.48
2019-03-21T04:30:38.741Z,19.02
2019-03-21T04:31:16.846Z,19.40
2019-03-21T04:31:54.928Z,22.62
2019-03-21T04:32:33.188Z,20.17
2019-03-21T04:33:11.347Z,22.55
2019-03-21T04:33:49.216Z,21.07
2019-03-21T04:34:27.785Z,21.05
2019-03-21T04:35:06.155Z,20.25
2019-03-21T04:35:44.813Z,22.05
2019-03-21T04:36:22.747Z,21.95
2019-03-21T04:37:00.982Z,21.17
2019-03-21T04:37:39.608Z,20.57
2019-03-21T04:38:17.711Z,20.40
2019-03-21T04:38:55.981Z,22.00
2019-03-21T04:39:34.555Z,22.25
2019-03-21T04:40:13.217Z,21.42
2019-03-21T04:40:50.847Z,22.80
2019-03-21T04:41:28.789Z,22.82
2019-03-21T04:42:07.057Z,20.72
2019-03-21T04:42:45.523Z,22.10
2019-03-21T04:43:23.982Z,22.27
2019-03-21T04:44:01.325Z,23.12
2019-03-21T04:44:39.207Z,22.15
2019-03-21T04:45:19.395Z,23.98
2019-03-21T04:46:03.244Z,23.32
2019-03-21T04:46:37.631Z,22.98
2019-03-21T04:47:15.926Z,23.47
2019-03-21T04:47:54.533Z,25.55
2019-03-21T04:48:32.956Z,25.40
2019-03-21T04:49:10.975Z,24.47
2019-03-21T04:49:48.971Z,25.35
2019-03-21T04:50:27.655Z,24.92
2019-03-21T04:51:05.867Z,23.52
2019-03-21T04:51:44.122Z,25.80
2019-03-21T04:52:22.417Z,24.90
2019-03-21T04:53:01.039Z,23.80
2019-03-21T04:53:38.710Z,25.70
2019-03-21T04:54:16.727Z,25.27
2019-03-21T04:54:54.301Z,25.05
2019-03-21T04:55:32.878Z,25.45
2019-03-21T04:56:11.483Z,27.00
2019-03-21T04:56:49.579Z,25.65
2019-03-21T04:57:27.845Z,24.67
2019-03-21T04:58:06.316Z,25.92
2019-03-21T04:58:44.250Z,26.07
2019-03-21T04:59:22.245Z,26.77
2019-03-21T05:00:03.589Z,26.07
2019-03-21T05:00:40.799Z,25.97
2019-03-21T05:01:19.067Z,24.87
2019-03-21T05:01:57.654Z,28.47
2019-03-21T05:02:35.575Z,27.90
2019-03-21T05:03:13.812Z,27.27
2019-03-21T05:03:51.118Z,26.97
2019-03-21T05:04:36.738Z,25.65
2019-03-21T05:05:15.220Z,27.70
2019-03-21T05:05:53.581Z,27.85
2019-03-21T05:06:32.955Z,27.93
2019-03-21T05:07:11.049Z,29.75
2019-03-21T05:07:52.138Z,28.17
2019-03-21T05:08:29.715Z,28.62
2019-03-21T05:09:10.227Z,28.73
2019-03-21T05:09:48.229Z,28.00
2019-03-21T05:10:26.255Z,27.70
2019-03-21T05:11:04.526Z,28.35
2019-03-21T05:11:42.815Z,30.02
2019-03-21T05:12:21.371Z,26.77
2019-03-21T05:12:59.344Z,27.82
2019-03-21T05:13:37.847Z,30.82
2019-03-21T05:14:16.347Z,28.15
2019-03-21T05:14:54.566Z,29.02
2019-03-21T05:15:34.856Z,29.45
2019-03-21T05:16:15.047Z,29.48
2019-03-21T05:16:52.377Z,29.52
2019-03-21T05:17:30.630Z,27.67
2019-03-21T05:18:13.975Z,29.67
2019-03-21T05:18:53.107Z,29.85
2019-03-21T05:19:31.094Z,29.72
2019-03-21T05:20:14.195Z,30.65
2019-03-21T05:20:51.582Z,30.23
2019-03-21T05:21:29.575Z,29.55
2019-03-21T05:22:07.688Z,30.32
2019-03-21T05:22:45.287Z,30.97
2019-03-21T05:23:23.235Z,29.80
2019-03-21T05:24:01.231Z,30.20
2019-03-21T05:24:39.786Z,29.80
2019-03-21T05:25:18.260Z,31.48
2019-03-21T05:25:55.863Z,29.40
2019-03-21T05:26:34.367Z,30.48
2019-03-21T05:27:12.321Z,31.23
2019-03-21T05:27:50.532Z,29.75
2019-03-21T05:28:28.749Z,30.23
2019-03-21T05:29:06.763Z,30.45
2019-03-21T05:29:45.339Z,30.57
2019-03-21T05:30:26.917Z,30.65
2019-03-21T05:31:07.771Z,31.55
2019-03-21T05:31:46.281Z,29.82
2019-03-21T05:32:24.250Z,30.65
2019-03-21T05:33:02.560Z,31.52
2019-03-21T05:33:40.200Z,31.37
2019-03-21T05:34:18.647Z,31.82
2019-03-21T05:35:02.664Z,29.52
2019-03-21T05:35:41.340Z,31.48
2019-03-21T05:36:19.333Z,31.17
2019-03-21T05:36:57.627Z,32.08
2019-03-21T05:37:35.854Z,31.97
2019-03-21T05:38:14.432Z,31.17
2019-03-21T05:38:52.756Z,30.65
2019-03-21T05:39:31.058Z,31.33
2019-03-21T05:40:11.171Z,30.00
2019-03-21T05:40:49.467Z,29.87
2019-03-21T05:41:27.792Z,29.65
2019-03-21T05:42:09.489Z,31.02
2019-03-21T05:42:54.028Z,30.90
2019-03-21T05:43:35.400Z,32.73
2019-03-21T05:44:21.433Z,32.25
2019-03-21T05:44:59.656Z,30.52
2019-03-21T05:45:38.027Z,30.92
2019-03-21T05:46:26.099Z,32.55
2019-03-21T05:46:56.388Z,31.97
2019-03-21T05:47:34.607Z,31.90
2019-03-21T05:48:12.198Z,30.72
2019-03-21T05:48:50.406Z,30.12
2019-03-21T05:49:28.380Z,33.23
2019-03-21T05:50:07.009Z,33.58
2019-03-21T05:50:45.272Z,33.58
2019-03-21T05:51:23.195Z,33.10
2019-03-21T05:52:01.229Z,34.15
2019-03-21T05:52:39.725Z,32.25
2019-03-21T05:53:17.960Z,31.27
2019-03-21T05:53:55.920Z,33.73
2019-03-21T05:54:33.894Z,33.37
2019-03-21T05:55:12.187Z,33.63
2019-03-21T05:55:50.185Z,32.38
2019-03-21T05:56:27.881Z,32.33
2019-03-21T05:57:06.135Z,31.87
2019-03-21T05:57:44.287Z,32.60
2019-03-21T05:58:22.527Z,31.00
2019-03-21T05:59:00.866Z,33.70
2019-03-21T05:59:39.158Z,33.50
2019-03-21T06:00:23.303Z,31.50
2019-03-21T06:01:01.288Z,30.80
2019-03-21T06:01:39.839Z,33.55
2019-03-21T06:02:18.206Z,32.15
2019-03-21T06:02:56.701Z,34.03
2019-03-21T06:03:47.379Z,33.38
2019-03-21T06:04:25.943Z,32.33
2019-03-21T06:05:03.984Z,32.48
2019-03-21T06:05:42.656Z,33.10
2019-03-21T06:06:28.070Z,33.40
2019-03-21T06:07:13.827Z,34.05
2019-03-21T06:08:14.156Z,33.30
2019-03-21T06:08:52.702Z,32.90
2019-03-21T06:09:30.716Z,31.30
2019-03-21T06:10:10.267Z,32.85
2019-03-21T06:10:49.757Z,34.95
2019-03-21T06:11:27.679Z,33.98
2019-03-21T06:12:06.176Z,35.13
2019-03-21T06:12:47.666Z,36.73
2019-03-21T06:13:25.933Z,35.20
2019-03-21T06:14:04.286Z,35.83
2019-03-21T06:14:46.311Z,37.85
2019-03-21T06:15:26.868Z,35.70
2019-03-21T06:16:13.786Z,35.75
2019-03-21T06:16:52.040Z,35.15
2019-03-21T06:17:31.413Z,34.75
2019-03-21T06:18:33.052Z,38.38
2019-03-21T06:19:26.685Z,33.30
2019-03-21T06:20:48.616Z,36.85
2019-03-21T06:21:52.341Z,34.40
2019-03-21T06:23:00.941Z,36.70
2019-03-21T06:24:04.134Z,35.25
2019-03-21T06:25:30.270Z,34.63
2019-03-21T06:26:28.731Z,34.90
2019-03-21T06:27:27.364Z,36.08
2019-03-21T06:28:06.072Z,36.25
2019-03-21T06:28:45.452Z,38.67
2019-03-21T06:29:23.727Z,36.05
2019-03-21T06:30:02.103Z,37.48
2019-03-21T06:30:40.414Z,37.53
2019-03-21T06:31:18.684Z,38.10
2019-03-21T06:31:56.738Z,37.00
2019-03-21T06:32:34.667Z,36.33
2019-03-21T06:33:12.248Z,40.28
2019-03-21T06:33:50.281Z,35.95
2019-03-21T06:34:28.236Z,38.58
2019-03-21T06:35:08.172Z,38.40
2019-03-21T06:35:46.177Z,39.75
2019-03-21T06:36:23.806Z,38.25
2019-03-21T06:37:01.857Z,39.73
2019-03-21T06:37:40.172Z,37.57
2019-03-21T06:38:18.828Z,39.00
2019-03-21T06:38:56.781Z,38.65
2019-03-21T06:39:35.070Z,39.65
2019-03-21T06:40:13.145Z,38.30
2019-03-21T06:40:51.221Z,36.93
2019-03-21T06:41:29.550Z,39.15
2019-03-21T06:42:07.516Z,38.45
2019-03-21T06:42:45.760Z,39.58
2019-03-21T06:43:23.844Z,36.63
2019-03-21T06:44:02.102Z,41.18
2019-03-21T06:44:40.076Z,41.63
2019-03-21T06:45:17.421Z,37.83
2019-03-21T06:45:55.804Z,41.98
2019-03-21T06:46:33.773Z,40.37
2019-03-21T06:47:11.644Z,40.77
2019-03-21T06:47:52.771Z,41.00
2019-03-21T06:48:29.717Z,39.17
2019-03-21T06:49:07.963Z,40.08
2019-03-21T06:49:46.635Z,40.70
2019-03-21T06:50:25.019Z,38.40
2019-03-21T06:51:02.745Z,41.00
2019-03-21T06:51:41.152Z,41.87
2019-03-21T06:52:18.970Z,40.20
2019-03-21T06:52:56.271Z,43.43
2019-03-21T06:53:34.505Z,41.73
2019-03-21T06:54:11.929Z,40.57
2019-03-21T06:54:49.660Z,42.37
2019-03-21T06:55:27.898Z,41.28
2019-03-21T06:56:05.802Z,39.90
2019-03-21T06:56:44.144Z,40.12
2019-03-21T06:57:21.957Z,38.10
2019-03-21T06:57:59.877Z,39.78
2019-03-21T06:58:38.186Z,42.90
2019-03-21T06:59:16.331Z,37.90
2019-03-21T06:59:54.254Z,39.87
2019-03-21T07:00:32.310Z,40.27
2019-03-21T07:01:10.276Z,40.67
2019-03-21T07:01:48.503Z,39.75
2019-03-21T07:02:26.698Z,40.73
2019-03-21T07:03:04.522Z,38.67
2019-03-21T07:03:42.884Z,38.93
2019-03-21T07:04:20.912Z,39.93
2019-03-21T07:04:58.614Z,38.80
2019-03-21T07:05:36.957Z,38.13
2019-03-21T07:06:14.865Z,38.00
2019-03-21T07:06:53.512Z,37.03
2019-03-21T07:07:30.952Z,39.87
2019-03-21T07:08:08.626Z,38.40
2019-03-21T07:08:46.552Z,36.80
2019-03-21T07:09:24.406Z,39.55
2019-03-21T07:10:02.669Z,38.70
2019-03-21T07:10:41.270Z,38.57
2019-03-21T07:11:19.530Z,39.87
2019-03-21T07:11:57.600Z,39.63
2019-03-21T07:12:35.349Z,41.97
2019-03-21T07:13:13.372Z,39.60
2019-03-21T07:13:51.268Z,41.23
2019-03-21T07:14:29.307Z,37.90
2019-03-21T07:15:08.765Z,37.67
2019-03-21T07:15:46.528Z,37.93
2019-03-21T07:16:24.748Z,39.03
2019-03-21T07:17:03.098Z,38.77
2019-03-21T07:17:40.914Z,41.03
2019-03-21T07:18:18.604Z,40.50
2019-03-21T07:18:56.600Z,36.27
2019-03-21T07:19:34.903Z,39.67
2019-03-21T07:20:13.584Z,38.73
2019-03-21T07:20:51.570Z,40.50
2019-03-21T07:21:29.622Z,39.20
2019-03-21T07:22:07.410Z,38.17
2019-03-21T07:22:45.482Z,40.20
2019-03-21T07:23:23.718Z,40.10
2019-03-21T07:24:01.868Z,38.67
2019-03-21T07:24:39.852Z,39.80
2019-03-21T07:25:18.048Z,40.07
2019-03-21T07:25:55.742Z,38.43
2019-03-21T07:26:33.692Z,41.23
2019-03-21T07:27:12.032Z,40.10
2019-03-21T07:27:50.264Z,37.50
2019-03-21T07:28:28.663Z,39.47
2019-03-21T07:29:07.007Z,37.83
2019-03-21T07:30:03.668Z,38.47
2019-03-21T07:30:42.179Z,37.37
2019-03-21T07:31:19.929Z,37.23
2019-03-21T07:31:58.336Z,38.70
2019-03-21T07:32:36.376Z,38.10
2019-03-21T07:33:14.433Z,38.57
2019-03-21T07:33:52.464Z,38.77
2019-03-21T07:34:30.399Z,38.93
2019-03-21T07:35:09.995Z,39.37
2019-03-21T07:35:48.006Z,38.67
2019-03-21T07:36:26.326Z,39.27
2019-03-21T07:37:04.429Z,38.27
2019-03-21T07:37:42.563Z,39.40
2019-03-21T07:38:20.825Z,38.87
2019-03-21T07:38:58.518Z,37.70
2019-03-21T07:39:36.369Z,41.20
2019-03-21T07:40:14.931Z,38.47
2019-03-21T07:40:51.958Z,40.53
2019-03-21T07:41:30.286Z,37.83
2019-03-21T07:42:08.299Z,41.50
2019-03-21T07:42:46.168Z,40.90
2019-03-21T07:43:24.362Z,42.20
2019-03-21T07:44:02.383Z,41.37
2019-03-21T07:44:40.420Z,40.20
2019-03-21T07:45:17.799Z,41.00
2019-03-21T07:45:56.121Z,43.27
2019-03-21T07:46:33.463Z,41.73
2019-03-21T07:47:13.319Z,43.40
2019-03-21T07:47:51.575Z,41.00
2019-03-21T07:48:29.948Z,43.13
2019-03-21T07:49:08.270Z,42.00
2019-03-21T07:49:46.524Z,41.13
2019-03-21T07:50:24.899Z,44.47
2019-03-21T07:51:02.982Z,42.23
2019-03-21T07:51:40.391Z,43.73
2019-03-21T07:52:18.684Z,45.40
2019-03-21T07:52:56.635Z,41.73
2019-03-21T07:53:34.720Z,43.60
2019-03-21T07:54:12.616Z,40.90
2019-03-21T07:54:50.693Z,39.90
2019-03-21T07:55:28.769Z,38.87
2019-03-21T07:56:07.445Z,39.70
2019-03-21T07:56:45.607Z,38.30
2019-03-21T07:57:23.949Z,38.60
2019-03-21T07:58:02.372Z,38.63
2019-03-21T07:58:40.285Z,38.33
2019-03-21T07:59:18.300Z,36.23
2019-03-21T07:59:55.609Z,37.97
2019-03-21T08:00:33.047Z,37.87
2019-03-21T08:01:11.273Z,38.43
2019-03-21T08:01:48.823Z,38.27
2019-03-21T08:02:26.894Z,36.10
2019-03-21T08:03:04.934Z,35.83
2019-03-21T08:03:42.867Z,36.30
2019-03-21T08:04:21.129Z,33.57
2019-03-21T08:04:59.157Z,34.97
2019-03-21T08:05:40.564Z,35.33
2019-03-21T08:06:17.144Z,32.90
2019-03-21T08:06:55.533Z,33.40
2019-03-21T08:07:33.509Z,33.10
2019-03-21T08:08:11.572Z,31.47
2019-03-21T08:08:48.829Z,33.30
2019-03-21T08:09:27.079Z,33.10
2019-03-21T08:10:05.983Z,32.60
2019-03-21T08:10:43.381Z,32.53
2019-03-21T08:11:21.126Z,32.60
2019-03-21T08:11:59.170Z,31.77
2019-03-21T08:12:37.020Z,32.60
2019-03-21T08:13:15.046Z,32.17
2019-03-21T08:13:52.788Z,31.67
2019-03-21T08:14:30.426Z,31.20
2019-03-21T08:15:08.577Z,31.33
2019-03-21T08:15:46.977Z,29.30
2019-03-21T08:16:25.129Z,32.60
2019-03-21T08:17:02.867Z,32.73
2019-03-21T08:17:41.225Z,30.90
2019-03-21T08:18:19.376Z,28.45
2019-03-21T08:18:56.309Z,31.50
2019-03-21T08:19:34.645Z,32.70
2019-03-21T08:20:13.232Z,29.00
2019-03-21T08:20:57.343Z,29.43
2019-03-21T08:21:31.059Z,31.23
2019-03-21T08:22:08.985Z,30.87
2019-03-21T08:22:46.969Z,29.27